Time;durP1;ratioP1;P1;durP2;ratioP2;P2;SDS_P1;SDS_P2;PMS_P1;PMS_P2;Temp;Humidity;BMP_temperature;BMP_pressure;BME280_temperature;BME280_humidity;BME280_pressure;Samples;Min_cycle;Max_cycle;Signal;HPM_P1;HPM_P2
2023/10/29 00:01:02;;;;;;;;;;;;;;;;;;5025755;28;19929;-78
2023/10/29 00:03:28;;;;;;;;;;;;;;;;;;5045005;28;20294;-79
2023/10/29 00:05:54;;;;;;;;;;;;;;;;;;5047102;28;19928;-78
2023/10/29 00:08:20;;;;;;;;;;;;;;;;;;5046666;28;20328;-78
2023/10/29 00:10:46;;;;;;;;;;;;;;;;;;5044027;28;19933;-78
2023/10/29 00:13:12;;;;;;;;;;;;;;;;;;5028071;28;19916;-78
2023/10/29 00:15:38;;;;;;;;;;;;;;;;;;5024147;28;19929;-78
2023/10/29 00:18:08;;;;;;;;;;;;;;;;;;5012382;28;19921;-78
2023/10/29 00:20:34;;;;;;;;;;;;;;;;;;5011171;28;19921;-78
2023/10/29 00:23:00;;;;;;;;;;;;;;;;;;5013163;28;20020;-78
2023/10/29 00:25:26;;;;;;;;;;;;;;;;;;5007690;28;20365;-78
2023/10/29 00:27:52;;;;;;;;;;;;;;;;;;5044761;28;19929;-78
2023/10/29 00:30:18;;;;;;;;;;;;;;;;;;5042567;28;19976;-78
2023/10/29 00:32:44;;;;;;;;;;;;;;;;;;5009560;28;19925;-78
2023/10/29 00:35:10;;;;;;;;;;;;;;;;;;5011057;28;20464;-78
2023/10/29 00:37:36;;;;;;;;;;;;;;;;;;5006997;28;20381;-78
2023/10/29 00:40:01;;;;;;;;;;;;;;;;;;5004181;28;19921;-78
2023/10/29 00:42:27;;;;;;;;;;;;;;;;;;5025066;28;19925;-78
2023/10/29 00:44:53;;;;;;;;;;;;;;;;;;5011665;28;19921;-78
2023/10/29 00:47:19;;;;;;;;;;;;;;;;;;5011892;28;19921;-78
2023/10/29 00:49:45;;;;;;;;;;;;;;;;;;5021415;28;20387;-79
2023/10/29 00:52:13;;;;;;;;;;;;;;;;;;5032314;28;19928;-77
2023/10/29 00:54:39;;;;;;;;;;;;;;;;;;5035588;28;19921;-78
2023/10/29 00:57:05;;;;;;;;;;;;;;;;;;5046426;28;19917;-78
2023/10/29 00:59:31;;;;;;;;;;;;;;;;;;5044373;28;19974;-78
2023/10/29 01:01:57;;;;;;;;;;;;;;;;;;5043485;28;19932;-78
2023/10/29 01:04:23;;;;;;;;;;;;;;;;;;5044380;28;19921;-78
2023/10/29 01:06:49;;;;;;;;;;;;;;;;;;5044001;28;19928;-78
2023/10/29 01:09:15;;;;;;;;;;;;;;;;;;5013293;28;19921;-78
2023/10/29 01:11:41;;;;;;;;;;;;;;;;;;5045256;28;20258;-78
2023/10/29 01:14:07;;;;;;;;;;;;;;;;;;5011229;28;19921;-78
2023/10/29 01:16:33;;;;;;;;;;;;;;;;;;5003597;28;20293;-77
2023/10/29 01:18:59;;;;;;;;;;;;;;;;;;4997938;28;19921;-78
2023/10/29 01:21:25;;;;;;;;;;;;;;;;;;5041379;28;20056;-78
2023/10/29 01:23:51;;;;;;;;;;;;;;;;;;5046314;28;20371;-78
2023/10/29 01:26:17;;;;;;;;;;;;;;;;;;5045545;28;20024;-78
2023/10/29 01:28:44;;;;;;;;;;;;;;;;;;5044389;28;19921;-78
2023/10/29 01:31:10;;;;;;;;;;;;;;;;;;5042036;28;20274;-78
2023/10/29 01:33:36;;;;;;;;;;;;;;;;;;5012723;28;19921;-77
2023/10/29 01:36:02;;;;;;;;;;;;;;;;;;5012008;28;19928;-78
2023/10/29 01:38:28;;;;;;;;;;;;;;;;;;5012667;28;19973;-78
2023/10/29 01:40:54;;;;;;;;;;;;;;;;;;5006023;28;19960;-78
2023/10/29 01:43:20;;;;;;;;;;;;;;;;;;5026562;28;20368;-79
2023/10/29 01:45:45;;;;;;;;;;;;;;;;;;5005977;28;20361;-78
2023/10/29 01:48:11;;;;;;;;;;;;;;;;;;5015927;28;19968;-78
2023/10/29 01:50:37;;;;;;;;;;;;;;;;;;5040219;28;19968;-79
2023/10/29 01:53:03;;;;;;;;;;;;;;;;;;5010641;28;20463;-78
2023/10/29 01:55:30;;;;;;;;;;;;;;;;;;5040092;28;19930;-78
2023/10/29 01:57:56;;;;;;;;;;;;;;;;;;5042322;28;20008;-78
2023/10/29 02:00:22;;;;;;;;;;;;;;;;;;5008125;28;20005;-78
2023/10/29 02:02:49;;;;;;;;;;;;;;;;;;5004875;28;20266;-78
2023/10/29 02:05:15;;;;;;;;;;;;;;;;;;5010993;28;19944;-78
2023/10/29 02:07:41;;;;;;;;;;;;;;;;;;5037760;28;20630;-78
2023/10/29 02:10:07;;;;;;;;;;;;;;;;;;5018542;28;19929;-78
2023/10/29 02:12:33;;;;;;;;;;;;;;;;;;5043491;28;19925;-78
2023/10/29 02:14:59;;;;;;;;;;;;;;;;;;5011411;28;20444;-77
2023/10/29 02:17:27;;;;;;;;;;;;;;;;;;5041330;28;20333;-78
2023/10/29 02:19:55;;;;;;;;;;;;;;;;;;5012742;28;20028;-78
2023/10/29 02:22:21;;;;;;;;;;;;;;;;;;5010932;28;19925;-78
2023/10/29 02:24:47;;;;;;;;;;;;;;;;;;5005327;28;20383;-78
2023/10/29 02:27:13;;;;;;;;;;;;;;;;;;5010037;28;19940;-78
2023/10/29 02:29:38;;;;;;;;;;;;;;;;;;5042713;28;19928;-78
2023/10/29 02:32:04;;;;;;;;;;;;;;;;;;5040226;28;20000;-78
2023/10/29 02:34:30;;;;;;;;;;;;;;;;;;5008609;28;19921;-78
2023/10/29 02:36:56;;;;;;;;;;;;;;;;;;5043218;28;19925;-78
2023/10/29 02:39:22;;;;;;;;;;;;;;;;;;5042224;28;19921;-78
2023/10/29 02:41:48;;;;;;;;;;;;;;;;;;5041484;28;19925;-77
2023/10/29 02:44:14;;;;;;;;;;;;;;;;;;5008652;28;19921;-78
2023/10/29 02:46:40;;;;;;;;;;;;;;;;;;5008101;28;20381;-77
2023/10/29 02:49:06;;;;;;;;;;;;;;;;;;5009356;28;19925;-77
2023/10/29 02:51:32;;;;;;;;;;;;;;;;;;5017988;28;19929;-77
2023/10/29 02:53:58;;;;;;;;;;;;;;;;;;5034244;28;19929;-78
2023/10/29 02:56:24;;;;;;;;;;;;;;;;;;5015692;28;19929;-77
2023/10/29 02:58:50;;;;;;;;;;;;;;;;;;5011739;28;19924;-77
2023/10/29 03:01:16;;;;;;;;;;;;;;;;;;5036024;28;19929;-77
2023/10/29 03:03:42;;;;;;;;;;;;;;;;;;5009706;28;19921;-77
2023/10/29 03:06:08;;;;;;;;;;;;;;;;;;5004197;28;19932;-78
2023/10/29 03:08:34;;;;;;;;;;;;;;;;;;5009228;28;19943;-77
2023/10/29 03:10:59;;;;;;;;;;;;;;;;;;5036411;28;20401;-77
2023/10/29 03:13:25;;;;;;;;;;;;;;;;;;5011489;28;19975;-78
2023/10/29 03:15:51;;;;;;;;;;;;;;;;;;5016072;28;19925;-77
2023/10/29 03:18:17;;;;;;;;;;;;;;;;;;5015555;28;19921;-77
2023/10/29 03:20:43;;;;;;;;;;;;;;;;;;5042087;28;19932;-77
2023/10/29 03:23:09;;;;;;;;;;;;;;;;;;5052757;28;19959;-78
2023/10/29 03:25:35;;;;;;;;;;;;;;;;;;5041603;28;19921;-78
2023/10/29 03:28:01;;;;;;;;;;;;;;;;;;5044509;28;19925;-77
2023/10/29 03:30:27;;;;;;;;;;;;;;;;;;5006496;28;19929;-77
2023/10/29 03:32:53;;;;;;;;;;;;;;;;;;5043089;28;19925;-77
2023/10/29 03:35:19;;;;;;;;;;;;;;;;;;5042977;28;19979;-77
2023/10/29 03:37:45;;;;;;;;;;;;;;;;;;5009842;28;19948;-77
2023/10/29 03:40:11;;;;;;;;;;;;;;;;;;5015602;28;19921;-77
2023/10/29 03:42:36;;;;;;;;;;;;;;;;;;5012193;28;20331;-77
2023/10/29 03:45:05;;;;;;;;;;;;;;;;;;5043816;28;19929;-78
2023/10/29 03:47:31;;;;;;;;;;;;;;;;;;5031670;28;19932;-77
2023/10/29 03:49:57;;;;;;;;;;;;;;;;;;5031590;28;20291;-77
2023/10/29 03:52:23;;;;;;;;;;;;;;;;;;5019528;28;19964;-77
2023/10/29 03:54:49;;;;;;;;;;;;;;;;;;5040423;28;19960;-78
2023/10/29 03:57:15;;;;;;;;;;;;;;;;;;5010967;28;20408;-78
2023/10/29 03:59:41;;;;;;;;;;;;;;;;;;5041818;28;19928;-77
2023/10/29 04:02:07;;;;;;;;;;;;;;;;;;5040820;28;19961;-77
2023/10/29 04:04:35;;;;;;;;;;;;;;;;;;5041314;28;19921;-77
2023/10/29 04:07:01;;;;;;;;;;;;;;;;;;5042486;28;20278;-77
2023/10/29 04:09:27;;;;;;;;;;;;;;;;;;5039027;28;20104;-77
2023/10/29 04:11:53;;;;;;;;;;;;;;;;;;5042520;28;20011;-77
2023/10/29 04:14:19;;;;;;;;;;;;;;;;;;5011774;28;20289;-77
2023/10/29 04:16:45;;;;;;;;;;;;;;;;;;5010962;28;19921;-77
2023/10/29 04:19:11;;;;;;;;;;;;;;;;;;5037260;28;19929;-77
2023/10/29 04:21:37;;;;;;;;;;;;;;;;;;5019587;28;19934;-77
2023/10/29 04:24:03;;;;;;;;;;;;;;;;;;5017060;28;19929;-77
2023/10/29 04:26:29;;;;;;;;;;;;;;;;;;5011302;28;20335;-77
2023/10/29 04:28:54;;;;;;;;;;;;;;;;;;5016964;28;20012;-77
2023/10/29 04:31:20;;;;;;;;;;;;;;;;;;5020017;28;20280;-77
2023/10/29 04:33:48;;;;;;;;;;;;;;;;;;5011075;28;19921;-78
2023/10/29 04:36:15;;;;;;;;;;;;;;;;;;5016359;28;20319;-77
2023/10/29 04:38:41;;;;;;;;;;;;;;;;;;5014133;28;19921;-77
2023/10/29 04:41:07;;;;;;;;;;;;;;;;;;5019763;28;19928;-77
2023/10/29 04:43:33;;;;;;;;;;;;;;;;;;5022710;28;19932;-78
2023/10/29 04:46:00;;;;;;;;;;;;;;;;;;5017170;28;20399;-77
2023/10/29 04:48:26;;;;;;;;;;;;;;;;;;5017455;28;19922;-77
2023/10/29 04:50:52;;;;;;;;;;;;;;;;;;5020486;28;19921;-77
2023/10/29 04:53:18;;;;;;;;;;;;;;;;;;5043907;28;19929;-77
2023/10/29 04:55:44;;;;;;;;;;;;;;;;;;5031251;28;19924;-77
2023/10/29 04:58:10;;;;;;;;;;;;;;;;;;5012062;28;19921;-77
2023/10/29 05:00:36;;;;;;;;;;;;;;;;;;5012352;28;19952;-77
2023/10/29 05:03:02;;;;;;;;;;;;;;;;;;5013757;28;20357;-78
2023/10/29 05:05:28;;;;;;;;;;;;;;;;;;5045122;28;19964;-78
2023/10/29 05:07:53;;;;;;;;;;;;;;;;;;5045263;28;19975;-78
2023/10/29 05:10:20;;;;;;;;;;;;;;;;;;5040028;28;20346;-77
2023/10/29 05:12:46;;;;;;;;;;;;;;;;;;5017581;28;19923;-77
2023/10/29 05:15:12;;;;;;;;;;;;;;;;;;5010830;28;20043;-77
2023/10/29 05:17:38;;;;;;;;;;;;;;;;;;5026868;28;19924;-78
2023/10/29 05:20:04;;;;;;;;;;;;;;;;;;5017673;28;19921;-78
2023/10/29 05:22:30;;;;;;;;;;;;;;;;;;5031573;28;19931;-77
2023/10/29 05:24:56;;;;;;;;;;;;;;;;;;5015064;28;19976;-78
2023/10/29 05:27:22;;;;;;;;;;;;;;;;;;5038205;28;20020;-78
2023/10/29 05:29:49;;;;;;;;;;;;;;;;;;5017851;28;19925;-78
2023/10/29 05:32:15;;;;;;;;;;;;;;;;;;5020241;28;19956;-77
2023/10/29 05:34:40;;;;;;;;;;;;;;;;;;5018849;28;19952;-77
2023/10/29 05:37:07;;;;;;;;;;;;;;;;;;5044045;28;19960;-78
2023/10/29 05:39:32;;;;;;;;;;;;;;;;;;5042890;28;19929;-78
2023/10/29 05:41:58;;;;;;;;;;;;;;;;;;5018446;28;19976;-77
2023/10/29 05:44:25;;;;;;;;;;;;;;;;;;5021719;28;20680;-77
2023/10/29 05:46:51;;;;;;;;;;;;;;;;;;5006867;28;19925;-78
2023/10/29 05:49:17;;;;;;;;;;;;;;;;;;5039441;28;19929;-77
2023/10/29 05:51:43;;;;;;;;;;;;;;;;;;5017321;28;20364;-77
2023/10/29 05:54:09;;;;;;;;;;;;;;;;;;5041538;28;19921;-77
2023/10/29 05:56:35;;;;;;;;;;;;;;;;;;5012880;28;20398;-77
2023/10/29 05:59:01;;;;;;;;;;;;;;;;;;5026704;28;19925;-78
2023/10/29 06:01:27;;;;;;;;;;;;;;;;;;5044397;28;19925;-78
2023/10/29 06:03:53;;;;;;;;;;;;;;;;;;5010114;28;19927;-78
2023/10/29 06:06:19;;;;;;;;;;;;;;;;;;5015207;28;19922;-77
2023/10/29 06:08:45;;;;;;;;;;;;;;;;;;5011347;28;20377;-77
2023/10/29 06:11:11;;;;;;;;;;;;;;;;;;5014468;28;19964;-78
2023/10/29 06:13:37;;;;;;;;;;;;;;;;;;5043749;28;19926;-77
2023/10/29 06:16:03;;;;;;;;;;;;;;;;;;5016654;28;19921;-78
2023/10/29 06:18:29;;;;;;;;;;;;;;;;;;5028166;28;19921;-77
2023/10/29 06:20:55;;;;;;;;;;;;;;;;;;5017502;28;19932;-77
2023/10/29 06:23:20;;;;;;;;;;;;;;;;;;5037974;28;19943;-78
2023/10/29 06:25:46;;;;;;;;;;;;;;;;;;5008563;28;20380;-78
2023/10/29 06:28:12;;;;;;;;;;;;;;;;;;5013912;28;19936;-77
2023/10/29 06:30:38;;;;;;;;;;;;;;;;;;5019794;28;23425;-77
2023/10/29 06:33:04;;;;;;;;;;;;;;;;;;5036215;28;20387;-77
2023/10/29 06:35:30;;;;;;;;;;;;;;;;;;5015249;28;19924;-78
2023/10/29 06:37:56;;;;;;;;;;;;;;;;;;5027614;28;19921;-77
2023/10/29 06:40:24;;;;;;;;;;;;;;;;;;5026529;28;19936;-77
2023/10/29 06:42:50;;;;;;;;;;;;;;;;;;5036183;28;19922;-77
2023/10/29 06:45:16;;;;;;;;;;;;;;;;;;5011536;28;20416;-78
2023/10/29 06:47:42;;;;;;;;;;;;;;;;;;5014220;28;20029;-78
2023/10/29 06:50:08;;;;;;;;;;;;;;;;;;5008428;28;19922;-78
2023/10/29 06:52:34;;;;;;;;;;;;;;;;;;5040181;28;20003;-78
2023/10/29 06:55:00;;;;;;;;;;;;;;;;;;5015559;28;20349;-78
2023/10/29 06:57:26;;;;;;;;;;;;;;;;;;5045578;28;20052;-77
2023/10/29 06:59:52;;;;;;;;;;;;;;;;;;5015933;28;19996;-77
2023/10/29 07:02:18;;;;;;;;;;;;;;;;;;5040526;28;20017;-77
2023/10/29 07:04:44;;;;;;;;;;;;;;;;;;5017898;28;19921;-78
2023/10/29 07:07:11;;;;;;;;;;;;;;;;;;5019192;28;19928;-77
2023/10/29 07:09:37;;;;;;;;;;;;;;;;;;5044585;28;19976;-77
2023/10/29 07:12:03;;;;;;;;;;;;;;;;;;5041756;28;19929;-77
2023/10/29 07:14:29;;;;;;;;;;;;;;;;;;5043081;28;19922;-77
2023/10/29 07:16:55;;;;;;;;;;;;;;;;;;5042334;28;19931;-78
2023/10/29 07:19:21;;;;;;;;;;;;;;;;;;5010856;28;19996;-80
2023/10/29 07:21:47;;;;;;;;;;;;;;;;;;5027028;28;20408;-77
2023/10/29 07:24:13;;;;;;;;;;;;;;;;;;5044023;28;19948;-77
2023/10/29 07:26:39;;;;;;;;;;;;;;;;;;5011703;28;20281;-77
2023/10/29 07:29:05;;;;;;;;;;;;;;;;;;5044402;28;19922;-77
2023/10/29 07:31:31;;;;;;;;;;;;;;;;;;5040880;28;20365;-77
2023/10/29 07:33:56;;;;;;;;;;;;;;;;;;5009025;28;19979;-77
2023/10/29 07:36:23;;;;;;;;;;;;;;;;;;5043114;28;19925;-77
2023/10/29 07:38:49;;;;;;;;;;;;;;;;;;5008581;28;19922;-77
2023/10/29 07:41:15;;;;;;;;;;;;;;;;;;5009573;28;19929;-77
2023/10/29 07:43:41;;;;;;;;;;;;;;;;;;5043655;28;20008;-77
2023/10/29 07:46:07;;;;;;;;;;;;;;;;;;5005120;28;20016;-77
2023/10/29 07:48:36;;;;;;;;;;;;;;;;;;5011965;28;20277;-77
2023/10/29 07:51:01;;;;;;;;;;;;;;;;;;5011002;28;19928;-77
2023/10/29 07:53:30;;;;;;;;;;;;;;;;;;5042374;28;20388;-77
2023/10/29 07:55:56;;;;;;;;;;;;;;;;;;5017774;28;19925;-76
2023/10/29 07:58:22;;;;;;;;;;;;;;;;;;5009945;28;19925;-76
2023/10/29 08:00:48;;;;;;;;;;;;;;;;;;5016623;28;20381;-76
2023/10/29 08:03:14;;;;;;;;;;;;;;;;;;5013909;28;19957;-77
2023/10/29 08:05:40;;;;;;;;;;;;;;;;;;5008682;28;19921;-77
2023/10/29 08:08:07;;;;;;;;;;;;;;;;;;5013203;28;20028;-76
2023/10/29 08:10:33;;;;;;;;;;;;;;;;;;5004163;28;20011;-77
2023/10/29 08:12:59;;;;;;;;;;;;;;;;;;5046027;28;20012;-76
2023/10/29 08:15:25;;;;;;;;;;;;;;;;;;5046141;28;19925;-76
2023/10/29 08:17:51;;;;;;;;;;;;;;;;;;5031885;28;19967;-77
2023/10/29 08:20:17;;;;;;;;;;;;;;;;;;4995753;28;19922;-76
2023/10/29 08:22:43;;;;;;;;;;;;;;;;;;5014721;28;19931;-76
2023/10/29 08:25:09;;;;;;;;;;;;;;;;;;5015732;28;19921;-76
2023/10/29 08:27:34;;;;;;;;;;;;;;;;;;5045025;28;19922;-77
2023/10/29 08:30:00;;;;;;;;;;;;;;;;;;5011763;28;20275;-77
2023/10/29 08:32:27;;;;;;;;;;;;;;;;;;5041646;28;20352;-77
2023/10/29 08:34:53;;;;;;;;;;;;;;;;;;5012073;28;19925;-77
2023/10/29 08:37:21;;;;;;;;;;;;;;;;;;5043122;28;19922;-77
2023/10/29 08:39:46;;;;;;;;;;;;;;;;;;5014240;28;19922;-76
2023/10/29 08:42:12;;;;;;;;;;;;;;;;;;5014463;28;19932;-77
2023/10/29 08:44:38;;;;;;;;;;;;;;;;;;5008645;28;19929;-76
2023/10/29 08:47:04;;;;;;;;;;;;;;;;;;5011668;28;20391;-79
2023/10/29 08:49:30;;;;;;;;;;;;;;;;;;5045522;28;19929;-77
2023/10/29 08:51:56;;;;;;;;;;;;;;;;;;5020828;28;19928;-78
2023/10/29 08:54:23;;;;;;;;;;;;;;;;;;5033521;28;19925;-78
2023/10/29 08:56:49;;;;;;;;;;;;;;;;;;5019747;28;19968;-78
2023/10/29 08:59:15;;;;;;;;;;;;;;;;;;5045223;28;19921;-77
2023/10/29 09:01:41;;;;;;;;;;;;;;;;;;5011768;28;20400;-78
2023/10/29 09:04:08;;;;;;;;;;;;;;;;;;5012697;28;19922;-78
2023/10/29 09:06:34;;;;;;;;;;;;;;;;;;5044367;28;19921;-77
2023/10/29 09:09:00;;;;;;;;;;;;;;;;;;5034343;28;19987;-77
2023/10/29 09:11:26;;;;;;;;;;;;;;;;;;5008296;28;19968;-77
2023/10/29 09:13:53;;;;;;;;;;;;;;;;;;5044171;28;19917;-77
2023/10/29 09:16:19;;;;;;;;;;;;;;;;;;5015877;28;19972;-77
2023/10/29 09:18:45;;;;;;;;;;;;;;;;;;5045117;28;19965;-78
2023/10/29 09:21:11;;;;;;;;;;;;;;;;;;5015890;28;20019;-77
2023/10/29 09:23:37;;;;;;;;;;;;;;;;;;5044520;28;19928;-76
2023/10/29 09:26:03;;;;;;;;;;;;;;;;;;5044086;28;20029;-78
2023/10/29 09:28:29;;;;;;;;;;;;;;;;;;5013204;28;19921;-78
2023/10/29 09:30:55;;;;;;;;;;;;;;;;;;5021313;28;20373;-78
2023/10/29 09:33:21;;;;;;;;;;;;;;;;;;5011873;28;19943;-77
2023/10/29 09:35:47;;;;;;;;;;;;;;;;;;5054731;28;20372;-76
2023/10/29 09:38:14;;;;;;;;;;;;;;;;;;5044058;28;19925;-76
2023/10/29 09:40:40;;;;;;;;;;;;;;;;;;5003188;28;19921;-77
2023/10/29 09:43:11;;;;;;;;;;;;;;;;;;5038649;28;19922;-77
2023/10/29 09:45:46;;;;;;;;;;;;;;;;;;5013047;28;19925;-77
2023/10/29 09:48:11;;;;;;;;;;;;;;;;;;5017320;28;19921;-77
2023/10/29 09:50:37;;;;;;;;;;;;;;;;;;5025355;28;19929;-78
2023/10/29 09:53:03;;;;;;;;;;;;;;;;;;5045114;28;19944;-77
2023/10/29 09:55:29;;;;;;;;;;;;;;;;;;5019876;28;20273;-78
2023/10/29 09:57:55;;;;;;;;;;;;;;;;;;5017256;28;20337;-78
2023/10/29 10:00:21;;;;;;;;;;;;;;;;;;5047942;28;19924;-77
2023/10/29 10:02:47;;;;;;;;;;;;;;;;;;5009037;28;19925;-78
2023/10/29 10:05:13;;;;;;;;;;;;;;;;;;5054303;28;19925;-78
2023/10/29 10:07:39;;;;;;;;;;;;;;;;;;5006320;28;20392;-78
2023/10/29 10:10:05;;;;;;;;;;;;;;;;;;5043516;28;19921;-78
2023/10/29 10:12:31;;;;;;;;;;;;;;;;;;5043241;28;19921;-78
2023/10/29 10:14:57;;;;;;;;;;;;;;;;;;5011127;28;19921;-78
2023/10/29 10:17:23;;;;;;;;;;;;;;;;;;5012683;28;19928;-78
2023/10/29 10:19:49;;;;;;;;;;;;;;;;;;5052241;28;20376;-78
2023/10/29 10:22:15;;;;;;;;;;;;;;;;;;5015475;28;20354;-78
2023/10/29 10:24:43;;;;;;;;;;;;;;;;;;5016603;28;20373;-79
2023/10/29 10:27:09;;;;;;;;;;;;;;;;;;5042900;28;19933;-78
2023/10/29 10:29:35;;;;;;;;;;;;;;;;;;5047108;28;19926;-78
2023/10/29 10:32:04;;;;;;;;;;;;;;;;;;5015420;28;19933;-78
2023/10/29 10:34:31;;;;;;;;;;;;;;;;;;5049603;28;19929;-78
2023/10/29 10:36:58;;;;;;;;;;;;;;;;;;5010089;28;19932;-78
2023/10/29 10:39:25;;;;;;;;;;;;;;;;;;5044735;28;19922;-78
2023/10/29 10:41:51;;;;;;;;;;;;;;;;;;5049469;28;19956;-79
2023/10/29 10:44:18;;;;;;;;;;;;;;;;;;5050468;28;19922;-78
2023/10/29 10:46:44;;;;;;;;;;;;;;;;;;5004934;28;19961;-77
2023/10/29 10:49:10;;;;;;;;;;;;;;;;;;5017749;28;19999;-78
2023/10/29 10:51:36;;;;;;;;;;;;;;;;;;5050861;28;19928;-78
2023/10/29 10:54:03;;;;;;;;;;;;;;;;;;5052017;28;19967;-78
2023/10/29 10:56:29;;;;;;;;;;;;;;;;;;5040358;28;20388;-78
2023/10/29 10:58:55;;;;;;;;;;;;;;;;;;5008039;28;19925;-78
2023/10/29 11:01:21;;;;;;;;;;;;;;;;;;5011710;28;19928;-78
2023/10/29 11:03:47;;;;;;;;;;;;;;;;;;5050867;28;19932;-78
2023/10/29 11:06:13;;;;;;;;;;;;;;;;;;5016421;28;19929;-78
2023/10/29 11:08:39;;;;;;;;;;;;;;;;;;5018630;28;19933;-78
2023/10/29 11:11:04;;;;;;;;;;;;;;;;;;5016192;28;19925;-77
2023/10/29 11:13:30;;;;;;;;;;;;;;;;;;5013890;28;20376;-78
2023/10/29 11:15:56;;;;;;;;;;;;;;;;;;5047900;28;19928;-78
2023/10/29 11:18:22;;;;;;;;;;;;;;;;;;5008017;28;20020;-76
2023/10/29 11:20:49;;;;;;;;;;;;;;;;;;5005758;28;20280;-77
2023/10/29 11:23:15;;;;;;;;;;;;;;;;;;5040443;28;20110;-78
2023/10/29 11:25:41;;;;;;;;;;;;;;;;;;5011918;28;20015;-78
2023/10/29 11:28:07;;;;;;;;;;;;;;;;;;5043459;28;19920;-78
2023/10/29 11:30:33;;;;;;;;;;;;;;;;;;5040378;28;19951;-79
2023/10/29 11:32:59;;;;;;;;;;;;;;;;;;5044565;28;20312;-79
2023/10/29 11:35:25;;;;;;;;;;;;;;;;;;5015960;28;19925;-78
2023/10/29 11:37:52;;;;;;;;;;;;;;;;;;5011069;28;19932;-79
2023/10/29 11:40:18;;;;;;;;;;;;;;;;;;5008581;28;20016;-79
2023/10/29 11:42:44;;;;;;;;;;;;;;;;;;5014136;28;20025;-78
2023/10/29 11:45:10;;;;;;;;;;;;;;;;;;5013353;28;20581;-78
2023/10/29 11:47:36;;;;;;;;;;;;;;;;;;5043514;28;20374;-79
2023/10/29 11:50:02;;;;;;;;;;;;;;;;;;5044674;28;19995;-79
2023/10/29 11:52:30;;;;;;;;;;;;;;;;;;5051909;28;19977;-78
2023/10/29 11:54:56;;;;;;;;;;;;;;;;;;5049142;28;19948;-78
2023/10/29 11:57:21;;;;;;;;;;;;;;;;;;5013649;28;20547;-78
2023/10/29 11:59:47;;;;;;;;;;;;;;;;;;5052184;28;19921;-78
2023/10/29 12:02:13;;;;;;;;;;;;;;;;;;5008716;28;19932;-79
2023/10/29 12:04:39;;;;;;;;;;;;;;;;;;5040187;28;19917;-79
2023/10/29 12:07:05;;;;;;;;;;;;;;;;;;5011825;28;19922;-83
2023/10/29 12:09:34;;;;;;;;;;;;;;;;;;5009916;28;19948;-80
2023/10/29 12:12:00;;;;;;;;;;;;;;;;;;5012941;28;20293;-79
2023/10/29 12:14:26;;;;;;;;;;;;;;;;;;5012655;28;19925;-79
2023/10/29 12:16:52;;;;;;;;;;;;;;;;;;5039845;28;20012;-77
2023/10/29 12:19:18;;;;;;;;;;;;;;;;;;5007706;28;19928;-79
2023/10/29 12:21:44;;;;;;;;;;;;;;;;;;5007741;28;19925;-79
2023/10/29 12:24:10;;;;;;;;;;;;;;;;;;5041129;28;19921;-78
2023/10/29 12:26:36;;;;;;;;;;;;;;;;;;5008816;28;20020;-78
2023/10/29 12:29:02;;;;;;;;;;;;;;;;;;5006555;28;20295;-79
2023/10/29 12:31:28;;;;;;;;;;;;;;;;;;5035573;28;20341;-78
2023/10/29 12:33:53;;;;;;;;;;;;;;;;;;5041673;28;20369;-78
2023/10/29 12:36:19;;;;;;;;;;;;;;;;;;5009073;28;19917;-79
2023/10/29 12:38:45;;;;;;;;;;;;;;;;;;5044574;28;20008;-78
2023/10/29 12:41:13;;;;;;;;;;;;;;;;;;5043257;28;19945;-78
2023/10/29 12:43:39;;;;;;;;;;;;;;;;;;5005142;28;19921;-78
2023/10/29 12:46:05;;;;;;;;;;;;;;;;;;5015581;28;19925;-78
2023/10/29 12:48:31;;;;;;;;;;;;;;;;;;5008254;28;20316;-79
2023/10/29 12:50:58;;;;;;;;;;;;;;;;;;5042223;28;19925;-78
2023/10/29 12:53:24;;;;;;;;;;;;;;;;;;5038478;28;19921;-78
2023/10/29 12:55:50;;;;;;;;;;;;;;;;;;5043549;28;19921;-79
2023/10/29 12:58:16;;;;;;;;;;;;;;;;;;5038646;28;19921;-78
2023/10/29 13:00:42;;;;;;;;;;;;;;;;;;5006996;28;19921;-78
2023/10/29 13:03:08;;;;;;;;;;;;;;;;;;5023497;28;19929;-78
2023/10/29 13:05:34;;;;;;;;;;;;;;;;;;5009734;28;19952;-79
2023/10/29 13:08:00;;;;;;;;;;;;;;;;;;5015296;28;19944;-78
2023/10/29 13:10:26;;;;;;;;;;;;;;;;;;5041459;28;19963;-78
2023/10/29 13:12:52;;;;;;;;;;;;;;;;;;5041546;28;20370;-79
2023/10/29 13:15:18;;;;;;;;;;;;;;;;;;5005846;28;19963;-80
2023/10/29 13:17:44;;;;;;;;;;;;;;;;;;5039436;28;19928;-78
2023/10/29 13:20:11;;;;;;;;;;;;;;;;;;5007664;28;19917;-79
2023/10/29 13:22:39;;;;;;;;;;;;;;;;;;5010900;28;19925;-78
2023/10/29 13:25:06;;;;;;;;;;;;;;;;;;5009470;28;19921;-79
2023/10/29 13:27:32;;;;;;;;;;;;;;;;;;5009270;28;20388;-79
2023/10/29 13:29:58;;;;;;;;;;;;;;;;;;5042259;28;19925;-79
2023/10/29 13:32:24;;;;;;;;;;;;;;;;;;5039521;28;19932;-79
2023/10/29 13:34:51;;;;;;;;;;;;;;;;;;5011714;28;19921;-79
2023/10/29 13:37:18;;;;;;;;;;;;;;;;;;5009405;28;20274;-79
2023/10/29 13:39:44;;;;;;;;;;;;;;;;;;5008857;28;19918;-80
2023/10/29 13:42:10;;;;;;;;;;;;;;;;;;5002809;28;20424;-78
2023/10/29 13:44:36;;;;;;;;;;;;;;;;;;5040795;28;19963;-79
2023/10/29 13:47:02;;;;;;;;;;;;;;;;;;5037491;28;19968;-79
2023/10/29 13:49:28;;;;;;;;;;;;;;;;;;5040852;28;20400;-79
2023/10/29 13:51:54;;;;;;;;;;;;;;;;;;5010976;28;19930;-79
2023/10/29 13:54:20;;;;;;;;;;;;;;;;;;5006987;28;20365;-79
2023/10/29 13:56:46;;;;;;;;;;;;;;;;;;5040965;28;19921;-78
2023/10/29 13:59:14;;;;;;;;;;;;;;;;;;5033543;28;19924;-78
2023/10/29 14:01:40;;;;;;;;;;;;;;;;;;5036182;28;19929;-77
2023/10/29 14:04:06;;;;;;;;;;;;;;;;;;5040082;28;19928;-78
2023/10/29 14:06:33;;;;;;;;;;;;;;;;;;5008627;28;19927;-78
2023/10/29 14:08:59;;;;;;;;;;;;;;;;;;5008890;28;20055;-76
2023/10/29 14:11:25;;;;;;;;;;;;;;;;;;5033728;28;19924;-77
2023/10/29 14:13:51;;;;;;;;;;;;;;;;;;5015462;28;20292;-78
2023/10/29 14:16:18;;;;;;;;;;;;;;;;;;5040340;28;19921;-79
2023/10/29 14:18:44;;;;;;;;;;;;;;;;;;5006087;28;19926;-78
2023/10/29 14:21:09;;;;;;;;;;;;;;;;;;5006094;28;19926;-78
2023/10/29 14:23:36;;;;;;;;;;;;;;;;;;5011367;28;19972;-75
2023/10/29 14:26:02;;;;;;;;;;;;;;;;;;5008580;28;19969;-78
2023/10/29 14:28:28;;;;;;;;;;;;;;;;;;5038718;28;19984;-78
2023/10/29 14:30:54;;;;;;;;;;;;;;;;;;5036865;28;20403;-78
2023/10/29 14:33:23;;;;;;;;;;;;;;;;;;5006130;28;19921;-78
2023/10/29 14:35:49;;;;;;;;;;;;;;;;;;5007972;28;19967;-78
2023/10/29 14:38:15;;;;;;;;;;;;;;;;;;5008192;28;20293;-78
2023/10/29 14:40:41;;;;;;;;;;;;;;;;;;5040835;28;20426;-78
2023/10/29 14:43:07;;;;;;;;;;;;;;;;;;5039649;28;19930;-77
2023/10/29 14:45:33;;;;;;;;;;;;;;;;;;5037398;28;19925;-78
2023/10/29 14:48:00;;;;;;;;;;;;;;;;;;5013699;28;19925;-78
2023/10/29 14:50:26;;;;;;;;;;;;;;;;;;5002854;28;19930;-78
2023/10/29 14:52:52;;;;;;;;;;;;;;;;;;5007237;28;19932;-78
2023/10/29 14:55:17;;;;;;;;;;;;;;;;;;5037467;28;19929;-77
2023/10/29 14:57:43;;;;;;;;;;;;;;;;;;5009047;28;19925;-78
2023/10/29 15:00:10;;;;;;;;;;;;;;;;;;5005511;28;20031;-78
2023/10/29 15:02:36;;;;;;;;;;;;;;;;;;5039022;28;20016;-78
2023/10/29 15:05:04;;;;;;;;;;;;;;;;;;5009376;28;19921;-79
2023/10/29 15:07:30;;;;;;;;;;;;;;;;;;4999319;28;20449;-81
2023/10/29 15:09:56;;;;;;;;;;;;;;;;;;5040948;28;20008;-80
2023/10/29 15:12:21;;;;;;;;;;;;;;;;;;5037615;28;20064;-80
2023/10/29 15:14:48;;;;;;;;;;;;;;;;;;5009033;28;19924;-80
2023/10/29 15:17:16;;;;;;;;;;;;;;;;;;5010536;28;19925;-80
2023/10/29 15:19:42;;;;;;;;;;;;;;;;;;5008910;28;19921;-80
2023/10/29 15:22:08;;;;;;;;;;;;;;;;;;5038620;28;19921;-80
2023/10/29 15:24:34;;;;;;;;;;;;;;;;;;5004390;28;19921;-80
2023/10/29 15:27:00;;;;;;;;;;;;;;;;;;5000991;28;20055;-79
2023/10/29 15:29:26;;;;;;;;;;;;;;;;;;5006891;28;19941;-79
2023/10/29 15:31:53;;;;;;;;;;;;;;;;;;5039210;28;19969;-79
2023/10/29 15:34:19;;;;;;;;;;;;;;;;;;5006260;28;19931;-79
2023/10/29 15:36:45;;;;;;;;;;;;;;;;;;5037897;28;20004;-79
2023/10/29 15:39:11;;;;;;;;;;;;;;;;;;5035472;28;20006;-80
2023/10/29 15:41:39;;;;;;;;;;;;;;;;;;5038067;28;19975;-79
2023/10/29 15:44:05;;;;;;;;;;;;;;;;;;5037470;28;19964;-80
2023/10/29 15:46:31;;;;;;;;;;;;;;;;;;5004266;28;20035;-80
2023/10/29 15:48:57;;;;;;;;;;;;;;;;;;5009999;28;19921;-80
2023/10/29 15:51:25;;;;;;;;;;;;;;;;;;4996990;28;19961;-80
2023/10/29 15:53:53;;;;;;;;;;;;;;;;;;5006824;28;19922;-80
2023/10/29 15:56:19;;;;;;;;;;;;;;;;;;5004412;28;19975;-80
2023/10/29 15:58:45;;;;;;;;;;;;;;;;;;5040271;28;20352;-81
2023/10/29 16:01:11;;;;;;;;;;;;;;;;;;5002204;28;20008;-79
2023/10/29 16:03:37;;;;;;;;;;;;;;;;;;5011479;28;20019;-79
2023/10/29 16:06:04;;;;;;;;;;;;;;;;;;5041306;28;20023;-81
2023/10/29 16:08:30;;;;;;;;;;;;;;;;;;5004623;28;19934;-80
2023/10/29 16:10:56;;;;;;;;;;;;;;;;;;5009778;28;19929;-80
2023/10/29 16:13:22;;;;;;;;;;;;;;;;;;5002626;28;20373;-80
2023/10/29 16:15:48;;;;;;;;;;;;;;;;;;5038026;28;20296;-80
2023/10/29 16:18:13;;;;;;;;;;;;;;;;;;5039373;28;19925;-80
2023/10/29 16:20:41;;;;;;;;;;;;;;;;;;5022604;28;19921;-80
2023/10/29 16:23:10;;;;;;;;;;;;;;;;;;5005458;28;19921;-80
2023/10/29 16:25:36;;;;;;;;;;;;;;;;;;5034849;28;19922;-80
2023/10/29 16:28:02;;;;;;;;;;;;;;;;;;5009313;28;20686;-80
2023/10/29 16:30:29;;;;;;;;;;;;;;;;;;5039292;28;19936;-81
2023/10/29 16:32:55;;;;;;;;;;;;;;;;;;5041781;28;20000;-80
2023/10/29 16:35:21;;;;;;;;;;;;;;;;;;4998887;28;19929;-80
2023/10/29 16:37:47;;;;;;;;;;;;;;;;;;5040414;28;19925;-79